sensor_id;sensor_type;location;lat;lon;timestamp;P1;durP1;ratioP1;P2;durP2;ratioP2
3971;SDS011;2000;47.572;14.202;2022-07-01T00:01:37;13.27;;;6.10;;
3971;SDS011;2000;47.572;14.202;2022-07-01T00:04:06;19.93;;;7.23;;
3971;SDS011;2000;47.572;14.202;2022-07-01T00:06:33;9.10;;;6.23;;
3971;SDS011;2000;47.572;14.202;2022-07-01T00:09:00;9.97;;;6.23;;
3971;SDS011;2000;47.572;14.202;2022-07-01T00:11:26;10.40;;;6.50;;
3971;SDS011;2000;47.572;14.202;2022-07-01T00:13:53;15.10;;;6.30;;
3971;SDS011;2000;47.572;14.202;2022-07-01T00:16:20;10.53;;;5.73;;
3971;SDS011;2000;47.572;14.202;2022-07-01T00:18:47;12.37;;;6.80;;
3971;SDS011;2000;47.572;14.202;2022-07-01T00:21:13;10.10;;;6.17;;
3971;SDS011;2000;47.572;14.202;2022-07-01T00:23:41;11.33;;;7.03;;
3971;SDS011;2000;47.572;14.202;2022-07-01T00:26:08;12.57;;;6.20;;
3971;SDS011;2000;47.572;14.202;2022-07-01T00:28:35;10.80;;;6.10;;
3971;SDS011;2000;47.572;14.202;2022-07-01T00:31:02;13.30;;;6.83;;
3971;SDS011;2000;47.572;14.202;2022-07-01T00:33:29;9.43;;;6.27;;
3971;SDS011;2000;47.572;14.202;2022-07-01T00:35:55;13.83;;;6.23;;
3971;SDS011;2000;47.572;14.202;2022-07-01T00:38:22;16.47;;;6.30;;
3971;SDS011;2000;47.572;14.202;2022-07-01T00:40:53;13.97;;;5.70;;
3971;SDS011;2000;47.572;14.202;2022-07-01T00:43:20;15.27;;;6.17;;
3971;SDS011;2000;47.572;14.202;2022-07-01T00:46:11;11.03;;;6.67;;
3971;SDS011;2000;47.572;14.202;2022-07-01T00:48:38;11.70;;;6.43;;
3971;SDS011;2000;47.572;14.202;2022-07-01T00:51:05;8.17;;;6.10;;
3971;SDS011;2000;47.572;14.202;2022-07-01T00:53:33;10.90;;;6.53;;
3971;SDS011;2000;47.572;14.202;2022-07-01T00:56:00;9.87;;;6.60;;
3971;SDS011;2000;47.572;14.202;2022-07-01T00:58:27;9.37;;;7.03;;
3971;SDS011;2000;47.572;14.202;2022-07-01T01:00:57;10.37;;;6.27;;
3971;SDS011;2000;47.572;14.202;2022-07-01T01:03:25;9.40;;;6.27;;
3971;SDS011;2000;47.572;14.202;2022-07-01T01:05:53;18.63;;;6.87;;
3971;SDS011;2000;47.572;14.202;2022-07-01T01:08:21;8.27;;;6.30;;
3971;SDS011;2000;47.572;14.202;2022-07-01T01:10:48;6.37;;;5.43;;
3971;SDS011;2000;47.572;14.202;2022-07-01T01:13:14;6.90;;;5.90;;
3971;SDS011;2000;47.572;14.202;2022-07-01T01:15:41;6.67;;;5.97;;
3971;SDS011;2000;47.572;14.202;2022-07-01T01:18:08;8.60;;;6.53;;
3971;SDS011;2000;47.572;14.202;2022-07-01T01:20:35;10.87;;;6.60;;
3971;SDS011;2000;47.572;14.202;2022-07-01T01:23:02;9.33;;;6.77;;
3971;SDS011;2000;47.572;14.202;2022-07-01T01:25:31;11.23;;;7.03;;
3971;SDS011;2000;47.572;14.202;2022-07-01T01:27:58;7.00;;;5.90;;
3971;SDS011;2000;47.572;14.202;2022-07-01T01:30:26;9.90;;;6.47;;
3971;SDS011;2000;47.572;14.202;2022-07-01T01:32:53;17.73;;;6.80;;
3971;SDS011;2000;47.572;14.202;2022-07-01T01:35:20;7.63;;;6.07;;
3971;SDS011;2000;47.572;14.202;2022-07-01T01:37:47;11.77;;;6.33;;
3971;SDS011;2000;47.572;14.202;2022-07-01T01:40:15;13.00;;;7.20;;
3971;SDS011;2000;47.572;14.202;2022-07-01T01:42:42;13.50;;;6.83;;
3971;SDS011;2000;47.572;14.202;2022-07-01T01:45:10;11.10;;;7.03;;
3971;SDS011;2000;47.572;14.202;2022-07-01T01:47:37;12.63;;;6.50;;
3971;SDS011;2000;47.572;14.202;2022-07-01T01:50:05;15.20;;;6.97;;
3971;SDS011;2000;47.572;14.202;2022-07-01T01:52:32;9.33;;;6.43;;
3971;SDS011;2000;47.572;14.202;2022-07-01T01:54:59;13.20;;;6.67;;
3971;SDS011;2000;47.572;14.202;2022-07-01T01:57:26;7.27;;;6.23;;
3971;SDS011;2000;47.572;14.202;2022-07-01T01:59:53;13.83;;;6.17;;
3971;SDS011;2000;47.572;14.202;2022-07-01T02:02:20;10.53;;;5.77;;
3971;SDS011;2000;47.572;14.202;2022-07-01T02:04:47;12.30;;;7.53;;
3971;SDS011;2000;47.572;14.202;2022-07-01T02:07:14;12.70;;;6.60;;
3971;SDS011;2000;47.572;14.202;2022-07-01T02:09:40;17.90;;;6.70;;
3971;SDS011;2000;47.572;14.202;2022-07-01T02:12:07;15.13;;;7.00;;
3971;SDS011;2000;47.572;14.202;2022-07-01T02:14:34;6.60;;;5.87;;
3971;SDS011;2000;47.572;14.202;2022-07-01T02:17:01;15.23;;;6.73;;
3971;SDS011;2000;47.572;14.202;2022-07-01T02:19:28;13.33;;;7.20;;
3971;SDS011;2000;47.572;14.202;2022-07-01T02:21:54;8.83;;;5.83;;
3971;SDS011;2000;47.572;14.202;2022-07-01T02:24:21;14.07;;;5.97;;
3971;SDS011;2000;47.572;14.202;2022-07-01T02:26:48;8.57;;;5.73;;
3971;SDS011;2000;47.572;14.202;2022-07-01T02:29:15;7.53;;;5.90;;
3971;SDS011;2000;47.572;14.202;2022-07-01T02:31:41;9.00;;;6.67;;
3971;SDS011;2000;47.572;14.202;2022-07-01T02:34:08;11.23;;;6.47;;
3971;SDS011;2000;47.572;14.202;2022-07-01T02:36:35;9.73;;;7.00;;
3971;SDS011;2000;47.572;14.202;2022-07-01T02:39:01;16.77;;;7.23;;
3971;SDS011;2000;47.572;14.202;2022-07-01T02:41:28;10.40;;;7.13;;
3971;SDS011;2000;47.572;14.202;2022-07-01T02:43:55;8.43;;;6.67;;
3971;SDS011;2000;47.572;14.202;2022-07-01T02:46:22;11.90;;;6.53;;
3971;SDS011;2000;47.572;14.202;2022-07-01T02:48:49;20.83;;;7.00;;
3971;SDS011;2000;47.572;14.202;2022-07-01T02:51:15;7.80;;;6.80;;
3971;SDS011;2000;47.572;14.202;2022-07-01T02:53:42;12.07;;;7.10;;
3971;SDS011;2000;47.572;14.202;2022-07-01T02:56:09;8.77;;;6.40;;
3971;SDS011;2000;47.572;14.202;2022-07-01T02:58:35;8.20;;;5.90;;
3971;SDS011;2000;47.572;14.202;2022-07-01T03:01:02;12.97;;;6.40;;
3971;SDS011;2000;47.572;14.202;2022-07-01T03:03:29;10.00;;;7.07;;
3971;SDS011;2000;47.572;14.202;2022-07-01T03:05:55;14.60;;;7.23;;
3971;SDS011;2000;47.572;14.202;2022-07-01T03:08:23;12.23;;;6.97;;
3971;SDS011;2000;47.572;14.202;2022-07-01T03:10:49;8.73;;;6.00;;
3971;SDS011;2000;47.572;14.202;2022-07-01T03:13:16;8.00;;;6.83;;
3971;SDS011;2000;47.572;14.202;2022-07-01T03:15:43;10.67;;;6.73;;
3971;SDS011;2000;47.572;14.202;2022-07-01T03:18:09;11.07;;;5.80;;
3971;SDS011;2000;47.572;14.202;2022-07-01T03:20:36;17.17;;;6.87;;
3971;SDS011;2000;47.572;14.202;2022-07-01T03:23:03;8.17;;;6.03;;
3971;SDS011;2000;47.572;14.202;2022-07-01T03:25:29;10.30;;;5.90;;
3971;SDS011;2000;47.572;14.202;2022-07-01T03:27:56;11.30;;;6.90;;
3971;SDS011;2000;47.572;14.202;2022-07-01T03:30:23;12.77;;;6.17;;
3971;SDS011;2000;47.572;14.202;2022-07-01T03:32:50;10.50;;;5.93;;
3971;SDS011;2000;47.572;14.202;2022-07-01T03:35:17;17.00;;;6.53;;
3971;SDS011;2000;47.572;14.202;2022-07-01T03:38:02;10.97;;;7.17;;
3971;SDS011;2000;47.572;14.202;2022-07-01T03:40:30;9.37;;;6.37;;
3971;SDS011;2000;47.572;14.202;2022-07-01T03:42:58;12.57;;;6.10;;
3971;SDS011;2000;47.572;14.202;2022-07-01T03:45:25;10.70;;;6.87;;
3971;SDS011;2000;47.572;14.202;2022-07-01T03:47:51;23.83;;;7.57;;
3971;SDS011;2000;47.572;14.202;2022-07-01T03:50:22;13.00;;;7.17;;
3971;SDS011;2000;47.572;14.202;2022-07-01T03:52:50;17.90;;;7.67;;
3971;SDS011;2000;47.572;14.202;2022-07-01T03:55:37;11.70;;;6.87;;
3971;SDS011;2000;47.572;14.202;2022-07-01T03:58:04;9.23;;;6.13;;
3971;SDS011;2000;47.572;14.202;2022-07-01T04:00:35;9.80;;;6.97;;
3971;SDS011;2000;47.572;14.202;2022-07-01T04:03:03;11.60;;;7.70;;
3971;SDS011;2000;47.572;14.202;2022-07-01T04:05:32;11.33;;;7.17;;
3971;SDS011;2000;47.572;14.202;2022-07-01T04:08:01;13.33;;;8.60;;
3971;SDS011;2000;47.572;14.202;2022-07-01T04:10:32;10.00;;;7.00;;
3971;SDS011;2000;47.572;14.202;2022-07-01T04:13:00;9.73;;;7.90;;
3971;SDS011;2000;47.572;14.202;2022-07-01T04:15:47;12.03;;;7.47;;
3971;SDS011;2000;47.572;14.202;2022-07-01T04:18:14;16.20;;;8.10;;
3971;SDS011;2000;47.572;14.202;2022-07-01T04:20:41;17.73;;;8.90;;
3971;SDS011;2000;47.572;14.202;2022-07-01T04:23:08;12.10;;;8.77;;
3971;SDS011;2000;47.572;14.202;2022-07-01T04:25:34;12.23;;;9.10;;
3971;SDS011;2000;47.572;14.202;2022-07-01T04:28:01;9.90;;;7.93;;
3971;SDS011;2000;47.572;14.202;2022-07-01T04:30:30;11.40;;;8.67;;
3971;SDS011;2000;47.572;14.202;2022-07-01T04:32:56;9.70;;;7.23;;
3971;SDS011;2000;47.572;14.202;2022-07-01T04:35:23;8.57;;;6.63;;
3971;SDS011;2000;47.572;14.202;2022-07-01T04:37:50;12.40;;;8.57;;
3971;SDS011;2000;47.572;14.202;2022-07-01T04:40:17;17.63;;;8.87;;
3971;SDS011;2000;47.572;14.202;2022-07-01T04:42:44;14.97;;;8.97;;
3971;SDS011;2000;47.572;14.202;2022-07-01T04:45:11;9.33;;;7.43;;
3971;SDS011;2000;47.572;14.202;2022-07-01T04:47:37;12.10;;;7.93;;
3971;SDS011;2000;47.572;14.202;2022-07-01T04:50:04;13.67;;;8.67;;
3971;SDS011;2000;47.572;14.202;2022-07-01T04:52:31;14.77;;;8.50;;
3971;SDS011;2000;47.572;14.202;2022-07-01T04:54:58;9.13;;;6.93;;
3971;SDS011;2000;47.572;14.202;2022-07-01T04:57:25;16.70;;;8.10;;
3971;SDS011;2000;47.572;14.202;2022-07-01T04:59:51;13.03;;;9.13;;
3971;SDS011;2000;47.572;14.202;2022-07-01T05:02:18;15.13;;;8.30;;
3971;SDS011;2000;47.572;14.202;2022-07-01T05:04:45;15.53;;;7.57;;
3971;SDS011;2000;47.572;14.202;2022-07-01T05:07:11;9.73;;;8.50;;
3971;SDS011;2000;47.572;14.202;2022-07-01T05:09:55;16.33;;;8.10;;
3971;SDS011;2000;47.572;14.202;2022-07-01T05:12:22;10.03;;;7.27;;
3971;SDS011;2000;47.572;14.202;2022-07-01T05:14:49;8.13;;;6.60;;
3971;SDS011;2000;47.572;14.202;2022-07-01T05:17:16;13.70;;;7.03;;
3971;SDS011;2000;47.572;14.202;2022-07-01T05:19:43;12.40;;;7.93;;
3971;SDS011;2000;47.572;14.202;2022-07-01T05:22:28;10.23;;;8.07;;
3971;SDS011;2000;47.572;14.202;2022-07-01T05:24:55;8.73;;;7.73;;
3971;SDS011;2000;47.572;14.202;2022-07-01T05:27:22;7.37;;;5.90;;
3971;SDS011;2000;47.572;14.202;2022-07-01T05:29:51;9.60;;;6.33;;
3971;SDS011;2000;47.572;14.202;2022-07-01T05:32:18;10.20;;;7.57;;
3971;SDS011;2000;47.572;14.202;2022-07-01T05:34:45;17.50;;;7.37;;
3971;SDS011;2000;47.572;14.202;2022-07-01T05:37:12;6.90;;;6.20;;
3971;SDS011;2000;47.572;14.202;2022-07-01T05:39:39;12.63;;;6.30;;
3971;SDS011;2000;47.572;14.202;2022-07-01T05:42:14;6.80;;;5.03;;
3971;SDS011;2000;47.572;14.202;2022-07-01T05:44:41;7.63;;;5.43;;
3971;SDS011;2000;47.572;14.202;2022-07-01T05:47:07;4.47;;;4.07;;
3971;SDS011;2000;47.572;14.202;2022-07-01T05:49:37;10.43;;;4.93;;
3971;SDS011;2000;47.572;14.202;2022-07-01T05:52:04;5.20;;;3.63;;
3971;SDS011;2000;47.572;14.202;2022-07-01T05:54:31;10.60;;;4.00;;
3971;SDS011;2000;47.572;14.202;2022-07-01T05:56:58;5.27;;;3.87;;
3971;SDS011;2000;47.572;14.202;2022-07-01T05:59:24;7.57;;;4.03;;
3971;SDS011;2000;47.572;14.202;2022-07-01T06:01:52;8.50;;;3.23;;
3971;SDS011;2000;47.572;14.202;2022-07-01T06:04:19;6.60;;;3.80;;
3971;SDS011;2000;47.572;14.202;2022-07-01T06:06:45;3.93;;;3.40;;
3971;SDS011;2000;47.572;14.202;2022-07-01T06:09:12;10.00;;;3.23;;
3971;SDS011;2000;47.572;14.202;2022-07-01T06:11:39;8.47;;;3.40;;
3971;SDS011;2000;47.572;14.202;2022-07-01T06:14:06;8.07;;;3.80;;
3971;SDS011;2000;47.572;14.202;2022-07-01T06:16:32;6.93;;;3.93;;
3971;SDS011;2000;47.572;14.202;2022-07-01T06:18:59;13.83;;;3.60;;
3971;SDS011;2000;47.572;14.202;2022-07-01T06:21:26;4.43;;;3.33;;
3971;SDS011;2000;47.572;14.202;2022-07-01T06:23:53;4.33;;;3.27;;
3971;SDS011;2000;47.572;14.202;2022-07-01T06:26:20;6.07;;;3.60;;
3971;SDS011;2000;47.572;14.202;2022-07-01T06:28:47;5.73;;;3.13;;
3971;SDS011;2000;47.572;14.202;2022-07-01T06:31:14;7.83;;;3.57;;
3971;SDS011;2000;47.572;14.202;2022-07-01T06:33:41;7.87;;;2.83;;
3971;SDS011;2000;47.572;14.202;2022-07-01T06:36:07;7.60;;;3.50;;
3971;SDS011;2000;47.572;14.202;2022-07-01T06:38:34;4.33;;;3.20;;
3971;SDS011;2000;47.572;14.202;2022-07-01T06:41:01;5.30;;;3.40;;
3971;SDS011;2000;47.572;14.202;2022-07-01T06:43:47;3.70;;;2.90;;
3971;SDS011;2000;47.572;14.202;2022-07-01T06:46:14;3.90;;;3.37;;
3971;SDS011;2000;47.572;14.202;2022-07-01T06:48:40;7.00;;;2.80;;
3971;SDS011;2000;47.572;14.202;2022-07-01T06:51:07;8.93;;;3.30;;
3971;SDS011;2000;47.572;14.202;2022-07-01T06:53:34;7.73;;;3.03;;
3971;SDS011;2000;47.572;14.202;2022-07-01T06:56:01;4.63;;;3.53;;
3971;SDS011;2000;47.572;14.202;2022-07-01T06:58:28;3.50;;;3.20;;
3971;SDS011;2000;47.572;14.202;2022-07-01T07:00:55;14.77;;;3.37;;
3971;SDS011;2000;47.572;14.202;2022-07-01T07:03:22;7.97;;;3.03;;
3971;SDS011;2000;47.572;14.202;2022-07-01T07:05:49;3.67;;;2.87;;
3971;SDS011;2000;47.572;14.202;2022-07-01T07:08:16;5.63;;;3.10;;
3971;SDS011;2000;47.572;14.202;2022-07-01T07:10:43;3.30;;;2.77;;
3971;SDS011;2000;47.572;14.202;2022-07-01T07:13:10;5.00;;;3.27;;
3971;SDS011;2000;47.572;14.202;2022-07-01T07:15:36;5.30;;;2.97;;
3971;SDS011;2000;47.572;14.202;2022-07-01T07:18:07;4.83;;;3.20;;
3971;SDS011;2000;47.572;14.202;2022-07-01T07:20:34;4.83;;;3.20;;
3971;SDS011;2000;47.572;14.202;2022-07-01T07:23:01;3.63;;;2.70;;
3971;SDS011;2000;47.572;14.202;2022-07-01T07:25:28;14.97;;;2.60;;
3971;SDS011;2000;47.572;14.202;2022-07-01T07:27:55;5.33;;;2.60;;
3971;SDS011;2000;47.572;14.202;2022-07-01T07:30:22;6.90;;;2.93;;
3971;SDS011;2000;47.572;14.202;2022-07-01T07:32:49;4.03;;;3.00;;
3971;SDS011;2000;47.572;14.202;2022-07-01T07:35:16;6.20;;;3.00;;
3971;SDS011;2000;47.572;14.202;2022-07-01T07:37:43;13.83;;;3.73;;
3971;SDS011;2000;47.572;14.202;2022-07-01T07:40:12;4.87;;;2.60;;
3971;SDS011;2000;47.572;14.202;2022-07-01T07:42:41;3.40;;;2.93;;
3971;SDS011;2000;47.572;14.202;2022-07-01T07:45:08;7.10;;;3.13;;
3971;SDS011;2000;47.572;14.202;2022-07-01T07:47:44;3.60;;;3.30;;
3971;SDS011;2000;47.572;14.202;2022-07-01T07:50:12;5.43;;;3.13;;
3971;SDS011;2000;47.572;14.202;2022-07-01T07:52:40;6.73;;;3.23;;
3971;SDS011;2000;47.572;14.202;2022-07-01T07:55:08;6.13;;;2.87;;
3971;SDS011;2000;47.572;14.202;2022-07-01T07:57:36;4.00;;;2.70;;
3971;SDS011;2000;47.572;14.202;2022-07-01T08:00:03;5.33;;;2.87;;
3971;SDS011;2000;47.572;14.202;2022-07-01T08:02:32;3.53;;;1.93;;
3971;SDS011;2000;47.572;14.202;2022-07-01T08:04:59;2.60;;;2.40;;
3971;SDS011;2000;47.572;14.202;2022-07-01T08:07:26;5.03;;;2.90;;
3971;SDS011;2000;47.572;14.202;2022-07-01T08:09:53;3.07;;;2.70;;
3971;SDS011;2000;47.572;14.202;2022-07-01T08:12:20;3.67;;;2.63;;
3971;SDS011;2000;47.572;14.202;2022-07-01T08:14:48;7.00;;;2.90;;
3971;SDS011;2000;47.572;14.202;2022-07-01T08:17:14;3.83;;;3.03;;
3971;SDS011;2000;47.572;14.202;2022-07-01T08:19:41;8.73;;;3.70;;
3971;SDS011;2000;47.572;14.202;2022-07-01T08:22:08;8.40;;;2.70;;
3971;SDS011;2000;47.572;14.202;2022-07-01T08:24:35;5.07;;;3.00;;
3971;SDS011;2000;47.572;14.202;2022-07-01T08:27:02;7.33;;;3.30;;
3971;SDS011;2000;47.572;14.202;2022-07-01T08:29:29;4.00;;;2.90;;
3971;SDS011;2000;47.572;14.202;2022-07-01T08:31:56;12.37;;;3.50;;
3971;SDS011;2000;47.572;14.202;2022-07-01T08:34:22;16.23;;;3.40;;
3971;SDS011;2000;47.572;14.202;2022-07-01T08:36:49;3.53;;;3.23;;
3971;SDS011;2000;47.572;14.202;2022-07-01T08:39:16;11.00;;;3.40;;
3971;SDS011;2000;47.572;14.202;2022-07-01T08:41:43;5.70;;;2.73;;
3971;SDS011;2000;47.572;14.202;2022-07-01T08:44:10;3.73;;;3.07;;
3971;SDS011;2000;47.572;14.202;2022-07-01T08:46:37;4.60;;;3.33;;
3971;SDS011;2000;47.572;14.202;2022-07-01T08:49:03;3.37;;;3.03;;
3971;SDS011;2000;47.572;14.202;2022-07-01T08:51:30;4.47;;;3.80;;
3971;SDS011;2000;47.572;14.202;2022-07-01T08:53:57;7.07;;;3.47;;
3971;SDS011;2000;47.572;14.202;2022-07-01T08:56:24;3.80;;;3.10;;
3971;SDS011;2000;47.572;14.202;2022-07-01T08:59:12;6.93;;;3.90;;
3971;SDS011;2000;47.572;14.202;2022-07-01T09:01:39;6.07;;;3.50;;
3971;SDS011;2000;47.572;14.202;2022-07-01T09:04:17;4.43;;;3.63;;
3971;SDS011;2000;47.572;14.202;2022-07-01T09:06:45;6.80;;;3.27;;
3971;SDS011;2000;47.572;14.202;2022-07-01T09:09:13;4.70;;;3.57;;
3971;SDS011;2000;47.572;14.202;2022-07-01T09:11:49;10.40;;;3.83;;
3971;SDS011;2000;47.572;14.202;2022-07-01T09:14:25;6.70;;;3.77;;
3971;SDS011;2000;47.572;14.202;2022-07-01T09:16:55;8.43;;;4.90;;
3971;SDS011;2000;47.572;14.202;2022-07-01T09:19:28;5.23;;;3.60;;
3971;SDS011;2000;47.572;14.202;2022-07-01T09:21:56;5.03;;;3.67;;
3971;SDS011;2000;47.572;14.202;2022-07-01T09:26:59;6.50;;;3.90;;
3971;SDS011;2000;47.572;14.202;2022-07-01T09:29:38;8.87;;;3.47;;
3971;SDS011;2000;47.572;14.202;2022-07-01T09:32:07;3.83;;;3.10;;
3971;SDS011;2000;47.572;14.202;2022-07-01T09:34:36;4.87;;;3.80;;
3971;SDS011;2000;47.572;14.202;2022-07-01T09:37:07;4.53;;;3.70;;
3971;SDS011;2000;47.572;14.202;2022-07-01T09:42:14;7.77;;;4.20;;
3971;SDS011;2000;47.572;14.202;2022-07-01T09:44:58;4.23;;;3.83;;
3971;SDS011;2000;47.572;14.202;2022-07-01T09:47:39;4.47;;;3.70;;
3971;SDS011;2000;47.572;14.202;2022-07-01T09:50:07;5.03;;;3.57;;
3971;SDS011;2000;47.572;14.202;2022-07-01T09:52:35;7.73;;;3.93;;
3971;SDS011;2000;47.572;14.202;2022-07-01T09:55:03;3.90;;;3.60;;
3971;SDS011;2000;47.572;14.202;2022-07-01T09:57:31;6.07;;;4.43;;
3971;SDS011;2000;47.572;14.202;2022-07-01T09:59:58;4.20;;;3.30;;
3971;SDS011;2000;47.572;14.202;2022-07-01T10:02:25;4.70;;;4.00;;
3971;SDS011;2000;47.572;14.202;2022-07-01T10:05:08;3.97;;;3.67;;
3971;SDS011;2000;47.572;14.202;2022-07-01T10:12:58;14.10;;;4.60;;
3971;SDS011;2000;47.572;14.202;2022-07-01T10:15:26;7.43;;;4.33;;
3971;SDS011;2000;47.572;14.202;2022-07-01T10:17:54;5.70;;;3.60;;
3971;SDS011;2000;47.572;14.202;2022-07-01T10:20:25;5.03;;;3.70;;
3971;SDS011;2000;47.572;14.202;2022-07-01T10:23:00;7.43;;;3.80;;
3971;SDS011;2000;47.572;14.202;2022-07-01T10:25:42;7.03;;;4.13;;
3971;SDS011;2000;47.572;14.202;2022-07-01T10:31:06;6.33;;;4.00;;
3971;SDS011;2000;47.572;14.202;2022-07-01T10:33:54;6.00;;;4.67;;
3971;SDS011;2000;47.572;14.202;2022-07-01T10:36:24;4.50;;;4.10;;
3971;SDS011;2000;47.572;14.202;2022-07-01T10:45:01;7.30;;;4.90;;
3971;SDS011;2000;47.572;14.202;2022-07-01T10:47:28;8.20;;;4.00;;
3971;SDS011;2000;47.572;14.202;2022-07-01T10:50:16;6.60;;;4.17;;
3971;SDS011;2000;47.572;14.202;2022-07-01T10:53:01;6.03;;;3.80;;
3971;SDS011;2000;47.572;14.202;2022-07-01T10:58:36;5.60;;;4.73;;
3971;SDS011;2000;47.572;14.202;2022-07-01T11:01:04;4.53;;;4.10;;
3971;SDS011;2000;47.572;14.202;2022-07-01T11:03:35;9.37;;;5.30;;
3971;SDS011;2000;47.572;14.202;2022-07-01T11:06:06;6.13;;;4.33;;
3971;SDS011;2000;47.572;14.202;2022-07-01T11:08:33;7.10;;;3.97;;
3971;SDS011;2000;47.572;14.202;2022-07-01T11:11:00;6.10;;;4.60;;
3971;SDS011;2000;47.572;14.202;2022-07-01T11:13:30;4.40;;;4.00;;
3971;SDS011;2000;47.572;14.202;2022-07-01T11:15:57;6.80;;;4.47;;
3971;SDS011;2000;47.572;14.202;2022-07-01T11:18:24;9.03;;;5.27;;
3971;SDS011;2000;47.572;14.202;2022-07-01T11:20:51;5.50;;;4.50;;
3971;SDS011;2000;47.572;14.202;2022-07-01T11:23:20;5.00;;;3.90;;
3971;SDS011;2000;47.572;14.202;2022-07-01T11:25:48;8.97;;;4.23;;
3971;SDS011;2000;47.572;14.202;2022-07-01T11:28:15;10.40;;;4.33;;
3971;SDS011;2000;47.572;14.202;2022-07-01T11:30:42;6.57;;;4.47;;
3971;SDS011;2000;47.572;14.202;2022-07-01T11:33:09;10.13;;;4.20;;
3971;SDS011;2000;47.572;14.202;2022-07-01T11:35:36;6.47;;;4.63;;
3971;SDS011;2000;47.572;14.202;2022-07-01T11:38:23;6.00;;;4.10;;
3971;SDS011;2000;47.572;14.202;2022-07-01T11:41:17;5.63;;;4.60;;
3971;SDS011;2000;47.572;14.202;2022-07-01T11:43:49;6.93;;;4.60;;
3971;SDS011;2000;47.572;14.202;2022-07-01T11:46:19;7.50;;;3.67;;
3971;SDS011;2000;47.572;14.202;2022-07-01T11:48:48;6.17;;;4.33;;
3971;SDS011;2000;47.572;14.202;2022-07-01T11:51:23;6.90;;;4.77;;
3971;SDS011;2000;47.572;14.202;2022-07-01T11:53:53;8.23;;;4.70;;
3971;SDS011;2000;47.572;14.202;2022-07-01T11:56:28;6.30;;;4.27;;
3971;SDS011;2000;47.572;14.202;2022-07-01T11:58:56;10.63;;;4.57;;
3971;SDS011;2000;47.572;14.202;2022-07-01T12:01:57;6.90;;;4.63;;
3971;SDS011;2000;47.572;14.202;2022-07-01T12:04:20;8.07;;;4.20;;
3971;SDS011;2000;47.572;14.202;2022-07-01T12:06:47;10.37;;;4.80;;
3971;SDS011;2000;47.572;14.202;2022-07-01T12:09:16;7.23;;;4.90;;
3971;SDS011;2000;47.572;14.202;2022-07-01T12:11:45;5.17;;;4.63;;
3971;SDS011;2000;47.572;14.202;2022-07-01T12:14:23;4.20;;;3.80;;
3971;SDS011;2000;47.572;14.202;2022-07-01T12:16:52;12.53;;;4.53;;
3971;SDS011;2000;47.572;14.202;2022-07-01T12:19:25;7.80;;;4.87;;
3971;SDS011;2000;47.572;14.202;2022-07-01T12:21:56;5.23;;;4.40;;
3971;SDS011;2000;47.572;14.202;2022-07-01T12:24:26;5.73;;;4.20;;
3971;SDS011;2000;47.572;14.202;2022-07-01T12:32:34;15.23;;;5.47;;
3971;SDS011;2000;47.572;14.202;2022-07-01T12:35:00;9.73;;;4.57;;
3971;SDS011;2000;47.572;14.202;2022-07-01T12:37:29;6.90;;;4.37;;
3971;SDS011;2000;47.572;14.202;2022-07-01T12:40:00;5.57;;;4.17;;
3971;SDS011;2000;47.572;14.202;2022-07-01T12:42:35;5.13;;;4.63;;
3971;SDS011;2000;47.572;14.202;2022-07-01T12:45:10;6.80;;;4.80;;
3971;SDS011;2000;47.572;14.202;2022-07-01T12:47:51;7.17;;;4.63;;
3971;SDS011;2000;47.572;14.202;2022-07-01T12:50:20;6.40;;;4.47;;
3971;SDS011;2000;47.572;14.202;2022-07-01T12:53:01;4.63;;;4.23;;
3971;SDS011;2000;47.572;14.202;2022-07-01T12:55:36;15.53;;;4.67;;
3971;SDS011;2000;47.572;14.202;2022-07-01T12:58:08;4.90;;;4.13;;
3971;SDS011;2000;47.572;14.202;2022-07-01T13:00:40;5.27;;;4.77;;
3971;SDS011;2000;47.572;14.202;2022-07-01T13:03:07;10.27;;;4.67;;
3971;SDS011;2000;47.572;14.202;2022-07-01T13:05:35;4.37;;;4.03;;
3971;SDS011;2000;47.572;14.202;2022-07-01T13:08:03;6.23;;;3.87;;
3971;SDS011;2000;47.572;14.202;2022-07-01T13:10:30;6.90;;;4.57;;
3971;SDS011;2000;47.572;14.202;2022-07-01T13:12:57;12.60;;;5.67;;
3971;SDS011;2000;47.572;14.202;2022-07-01T13:15:24;4.17;;;3.77;;
3971;SDS011;2000;47.572;14.202;2022-07-01T13:17:51;5.30;;;4.37;;
3971;SDS011;2000;47.572;14.202;2022-07-01T13:20:18;4.77;;;4.37;;
3971;SDS011;2000;47.572;14.202;2022-07-01T13:22:46;8.97;;;4.27;;
3971;SDS011;2000;47.572;14.202;2022-07-01T13:25:13;6.10;;;4.00;;
3971;SDS011;2000;47.572;14.202;2022-07-01T13:27:40;6.10;;;4.60;;
3971;SDS011;2000;47.572;14.202;2022-07-01T13:30:10;4.43;;;4.10;;
3971;SDS011;2000;47.572;14.202;2022-07-01T13:32:38;21.73;;;4.93;;
3971;SDS011;2000;47.572;14.202;2022-07-01T13:35:08;4.93;;;3.10;;
3971;SDS011;2000;47.572;14.202;2022-07-01T13:37:35;8.17;;;3.70;;
3971;SDS011;2000;47.572;14.202;2022-07-01T13:40:03;14.80;;;5.70;;
3971;SDS011;2000;47.572;14.202;2022-07-01T13:42:30;15.03;;;4.53;;
3971;SDS011;2000;47.572;14.202;2022-07-01T13:44:57;9.43;;;4.07;;
3971;SDS011;2000;47.572;14.202;2022-07-01T13:47:23;7.53;;;4.63;;
3971;SDS011;2000;47.572;14.202;2022-07-01T13:49:50;5.50;;;4.63;;
3971;SDS011;2000;47.572;14.202;2022-07-01T13:52:17;8.13;;;4.17;;
3971;SDS011;2000;47.572;14.202;2022-07-01T13:54:44;7.50;;;3.67;;
3971;SDS011;2000;47.572;14.202;2022-07-01T13:57:11;8.30;;;4.27;;
3971;SDS011;2000;47.572;14.202;2022-07-01T13:59:38;5.97;;;4.03;;
3971;SDS011;2000;47.572;14.202;2022-07-01T14:02:10;5.67;;;4.20;;
3971;SDS011;2000;47.572;14.202;2022-07-01T14:04:37;5.30;;;4.03;;
3971;SDS011;2000;47.572;14.202;2022-07-01T14:07:04;4.10;;;3.13;;
3971;SDS011;2000;47.572;14.202;2022-07-01T14:09:32;11.30;;;4.20;;
3971;SDS011;2000;47.572;14.202;2022-07-01T14:12:00;10.43;;;4.10;;
3971;SDS011;2000;47.572;14.202;2022-07-01T14:14:29;9.23;;;4.60;;
3971;SDS011;2000;47.572;14.202;2022-07-01T14:16:56;11.50;;;5.90;;
3971;SDS011;2000;47.572;14.202;2022-07-01T14:19:23;23.23;;;6.10;;
3971;SDS011;2000;47.572;14.202;2022-07-01T14:21:49;22.63;;;5.93;;
3971;SDS011;2000;47.572;14.202;2022-07-01T14:24:16;15.10;;;4.83;;
3971;SDS011;2000;47.572;14.202;2022-07-01T14:26:43;17.57;;;4.30;;
3971;SDS011;2000;47.572;14.202;2022-07-01T14:29:10;8.60;;;4.80;;
3971;SDS011;2000;47.572;14.202;2022-07-01T14:31:37;10.20;;;3.67;;
3971;SDS011;2000;47.572;14.202;2022-07-01T14:34:04;15.10;;;5.10;;
3971;SDS011;2000;47.572;14.202;2022-07-01T14:36:30;10.30;;;4.20;;
3971;SDS011;2000;47.572;14.202;2022-07-01T14:38:57;12.30;;;4.33;;
3971;SDS011;2000;47.572;14.202;2022-07-01T14:41:25;7.57;;;4.30;;
3971;SDS011;2000;47.572;14.202;2022-07-01T14:43:53;10.67;;;4.23;;
3971;SDS011;2000;47.572;14.202;2022-07-01T14:46:19;16.73;;;7.07;;
3971;SDS011;2000;47.572;14.202;2022-07-01T14:48:46;22.13;;;9.20;;
3971;SDS011;2000;47.572;14.202;2022-07-01T14:51:13;16.17;;;4.40;;
3971;SDS011;2000;47.572;14.202;2022-07-01T14:53:40;3.43;;;2.00;;
3971;SDS011;2000;47.572;14.202;2022-07-01T14:56:10;3.23;;;1.60;;
3971;SDS011;2000;47.572;14.202;2022-07-01T14:58:37;4.10;;;1.50;;
3971;SDS011;2000;47.572;14.202;2022-07-01T15:01:04;3.97;;;2.13;;
3971;SDS011;2000;47.572;14.202;2022-07-01T15:03:31;5.57;;;2.23;;
3971;SDS011;2000;47.572;14.202;2022-07-01T15:05:58;5.37;;;2.60;;
3971;SDS011;2000;47.572;14.202;2022-07-01T15:08:25;6.30;;;3.10;;
3971;SDS011;2000;47.572;14.202;2022-07-01T15:10:51;4.17;;;2.27;;
3971;SDS011;2000;47.572;14.202;2022-07-01T15:13:32;3.17;;;1.80;;
3971;SDS011;2000;47.572;14.202;2022-07-01T15:16:01;1.70;;;1.17;;
3971;SDS011;2000;47.572;14.202;2022-07-01T15:18:28;0.50;;;0.43;;
3971;SDS011;2000;47.572;14.202;2022-07-01T15:20:58;1.30;;;0.70;;
3971;SDS011;2000;47.572;14.202;2022-07-01T15:23:26;2.23;;;1.00;;
3971;SDS011;2000;47.572;14.202;2022-07-01T15:25:54;2.13;;;0.40;;
3971;SDS011;2000;47.572;14.202;2022-07-01T15:28:21;2.27;;;0.60;;
3971;SDS011;2000;47.572;14.202;2022-07-01T15:30:50;2.50;;;0.60;;
3971;SDS011;2000;47.572;14.202;2022-07-01T15:33:17;6.03;;;1.47;;